Cazaux (BA 120) Air Base

Airport
ICAO code: 
LFBC
Summary
ICAO Region: 
EUR
Territory: 
Location: 
, Aquitaine
Serving: 
Cazaux
Elevation: 
84 ft
Coordinates: 
Aerial View: 
44° 31' 59.999" N, 1° 7' 30" W
Metar
Observation
LFBC 302100Z AUTO 23006KT 9999 // BKN047 BKN054 11/10 Q1023
Station
Cazaux
Date/Time
2021-11-30 21:00:00
Wind direction
230°
Wind speed
06 kts
Lowest cloud amount
broken clouds
Temperature
11°C
Dew point
10°C
Humidity
93%
QNH
1023 hPa
Weather condition
n/a

Runways

Designator Length Width Surface Rops
6/24 2408 45 ASP No/No
Airport map: 
Aerial View: 

SKYbrary Partners:

Safety knowledge contributed by: